Time;durP1;ratioP1;P1;durP2;ratioP2;P2;SDS_P1;SDS_P2;PMS_P1;PMS_P2;Temp;Humidity;BMP_temperature;BMP_pressure;BME280_temperature;BME280_humidity;BME280_pressure;Samples;Min_cycle;Max_cycle;Signal;HPM_P1;HPM_P2
2021/04/27 09:30:48;;;;;;;2.47;1.47;;;;;;;17.37;19.47;100085.81;5115387;27;20600;-63
2021/04/27 09:33:17;;;;;;;1.60;1.47;;;;;;;19.28;16.87;100070.59;5059811;27;20895;-65
2021/04/27 09:35:46;;;;;;;3.10;2.00;;;;;;;19.40;17.14;100075.44;5055874;28;20536;-65
2021/04/27 09:38:16;;;;;;;4.80;2.03;;;;;;;17.65;18.74;100067.00;5055424;28;20461;-65
2021/04/27 09:41:01;;;;;;;3.30;1.50;;;;;;;20.16;16.18;100066.25;5054497;28;20477;-65
2021/04/27 09:43:29;;;;;;;2.37;1.23;;;;;;;20.62;15.37;100058.13;5055390;28;20457;-65
2021/04/27 09:45:58;;;;;;;3.50;1.33;;;;;;;20.29;15.62;100061.66;5054616;28;20481;-64
2021/04/27 09:48:32;;;;;;;2.63;1.50;;;;;;;20.10;15.75;100060.63;5054588;28;20429;-65
2021/04/27 09:51:04;;;;;;;2.47;1.73;;;;;;;18.77;16.96;100049.25;5045353;28;20472;-65
2021/04/27 09:53:40;;;;;;;1.87;1.40;;;;;;;18.59;16.83;100050.59;5035434;28;20457;-65
2021/04/27 09:56:07;;;;;;;3.10;1.23;;;;;;;18.71;16.81;100056.28;5034480;28;20478;-63
2021/04/27 09:58:33;;;;;;;2.10;1.30;;;;;;;16.97;19.26;100052.88;5042115;28;20444;-66
2021/04/27 10:01:05;;;;;;;5.10;1.27;;;;;;;18.88;16.49;100046.00;5054115;28;20481;-65
2021/04/27 10:03:31;;;;;;;2.73;1.50;;;;;;;19.81;16.96;100044.69;5052856;28;20452;-65
2021/04/27 10:05:58;;;;;;;2.93;1.40;;;;;;;19.27;16.53;100030.97;5054871;28;20511;-65
2021/04/27 10:08:24;;;;;;;3.20;2.10;;;;;;;19.48;17.34;100024.56;5054957;28;20551;-65
2021/04/27 10:10:51;;;;;;;2.43;1.60;;;;;;;20.50;16.36;100038.03;5053145;28;20538;-65
2021/04/27 10:13:17;;;;;;;3.30;1.70;;;;;;;21.08;15.66;100029.16;5035913;28;20454;-65
2021/04/27 10:15:45;;;;;;;1.97;1.70;;;;;;;21.63;14.82;100031.41;5036750;28;20474;-65
2021/04/27 10:18:12;;;;;;;7.80;1.90;;;;;;;20.67;16.00;100031.13;5054226;28;20441;-65
2021/04/27 10:20:38;;;;;;;1.30;1.20;;;;;;;18.13;16.93;100015.91;5055209;28;20566;-65
2021/04/27 10:23:06;;;;;;;2.47;1.57;;;;;;;18.05;16.98;100019.59;5054627;28;20879;-65
2021/04/27 10:25:33;;;;;;;9.30;1.90;;;;;;;16.66;18.55;100024.19;5052856;28;20834;-63
2021/04/27 10:28:02;;;;;;;1.70;1.30;;;;;;;18.75;17.10;100013.41;5045225;28;20948;-63
2021/04/27 10:30:33;;;;;;;7.30;1.87;;;;;;;18.14;16.44;99997.78;5049819;28;20468;-63
2021/04/27 10:33:27;;;;;;;4.50;1.50;;;;;;;16.70;18.04;99993.09;5053366;28;20453;-63
2021/04/27 10:36:05;;;;;;;4.10;1.67;;;;;;;15.87;18.38;100003.03;5006105;28;20478;-62
2021/04/27 10:38:46;;;;;;;2.10;1.40;;;;;;;18.41;17.63;99990.72;5009462;28;20465;-63
2021/04/27 10:41:15;;;;;;;1.67;1.40;;;;;;;18.13;17.00;99983.44;5000325;28;20514;-63
2021/04/27 10:43:55;;;;;;;3.57;1.40;;;;;;;18.74;16.68;99992.78;4996276;28;20451;-64
2021/04/27 10:46:54;;;;;;;2.07;1.83;;;;;;;18.30;17.43;99975.88;4995217;28;20486;-66
2021/04/27 10:49:24;;;;;;;3.40;1.80;;;;;;;17.10;19.41;100004.44;4995934;28;20498;-65
2021/04/27 10:51:52;;;;;;;3.33;1.40;;;;;;;17.58;17.52;99979.59;4994959;28;20486;-63
2021/04/27 10:54:20;;;;;;;2.07;1.73;;;;;;;18.01;17.81;99976.91;4996983;28;20603;-63
2021/04/27 10:56:48;;;;;;;2.97;1.60;;;;;;;16.99;18.35;99973.34;4995036;28;20703;-62
2021/04/27 10:59:16;;;;;;;2.03;1.57;;;;;;;16.69;19.34;99980.63;4995393;28;20909;-64
2021/04/27 11:01:44;;;;;;;2.40;1.73;;;;;;;18.04;18.54;99966.50;4984166;28;20480;-69
2021/04/27 11:04:27;;;;;;;3.70;1.93;;;;;;;18.48;17.91;99971.81;4991831;28;20948;-65
2021/04/27 11:07:31;;;;;;;2.73;1.57;;;;;;;16.25;20.35;99971.50;4995236;28;20487;-65
2021/04/27 11:10:23;;;;;;;3.07;1.80;;;;;;;15.95;20.25;99957.97;4994254;28;20490;-65
2021/04/27 11:12:54;;;;;;;3.53;2.07;;;;;;;16.98;18.85;99951.91;5043650;28;20473;-62
2021/04/27 11:15:23;;;;;;;2.87;1.50;;;;;;;16.09;20.72;99967.13;5045266;28;20645;-64
2021/04/27 11:18:02;;;;;;;6.10;1.97;;;;;;;17.78;19.06;99950.06;5059517;28;20501;-62
2021/04/27 11:20:50;;;;;;;2.20;1.90;;;;;;;17.63;19.92;99945.53;5063239;28;20464;-63
2021/04/27 11:23:40;;;;;;;6.60;1.83;;;;;;;18.35;19.29;99948.19;5060016;28;20518;-63
2021/04/27 11:26:51;;;;;;;3.33;1.93;;;;;;;18.83;18.40;99947.44;5049518;28;20474;-64
2021/04/27 11:29:20;;;;;;;3.90;2.23;;;;;;;17.73;18.34;99944.41;5027107;28;20569;-65
2021/04/27 11:31:55;;;;;;;4.20;2.23;;;;;;;17.39;20.15;99943.22;5039504;28;20485;-65
2021/04/27 11:34:21;;;;;;;4.33;1.93;;;;;;;17.57;18.84;99940.06;5041960;28;20489;-64
2021/04/27 11:36:48;;;;;;;4.30;2.30;;;;;;;17.53;19.73;99930.69;5041413;28;20477;-63
2021/04/27 11:39:16;;;;;;;4.50;2.10;;;;;;;17.45;19.76;99923.56;5040991;28;20438;-66
2021/04/27 11:41:44;;;;;;;2.33;1.70;;;;;;;17.41;19.24;99933.06;5040331;28;20489;-68
2021/04/27 11:44:10;;;;;;;3.17;1.93;;;;;;;17.66;19.65;99922.72;5041533;28;20457;-64
2021/04/27 11:46:58;;;;;;;2.90;1.80;;;;;;;17.10;19.50;99921.53;5040263;28;20477;-61
2021/04/27 11:49:46;;;;;;;2.80;1.80;;;;;;;16.88;20.32;99915.28;5041101;28;20524;-62
2021/04/27 11:52:13;;;;;;;2.50;2.13;;;;;;;15.53;20.66;99916.19;5040114;28;20535;-62
2021/04/27 11:54:40;;;;;;;2.33;1.60;;;;;;;16.78;19.57;99914.69;5040108;28;20469;-62
2021/04/27 11:57:14;;;;;;;2.77;2.03;;;;;;;15.56;20.87;99921.22;5040309;28;21036;-64
2021/04/27 11:59:40;;;;;;;4.10;2.20;;;;;;;15.59;20.28;99915.47;5041493;28;20432;-62
2021/04/27 12:02:06;;;;;;;2.23;1.90;;;;;;;16.97;19.87;99913.28;5023067;28;20526;-62
2021/04/27 12:04:33;;;;;;;3.40;2.20;;;;;;;17.35;18.97;99904.13;5021445;28;20478;-61
2021/04/27 12:06:59;;;;;;;2.83;2.10;;;;;;;16.51;19.79;99902.75;5020652;28;21062;-62
2021/04/27 12:09:26;;;;;;;3.10;2.20;;;;;;;15.57;20.51;99911.25;5020120;28;20514;-62
2021/04/27 12:11:52;;;;;;;4.30;2.17;;;;;;;15.71;21.11;99902.41;5024315;28;20506;-62
2021/04/27 12:14:19;;;;;;;5.50;2.23;;;;;;;15.76;21.09;99900.03;5027153;28;20451;-62
2021/04/27 12:16:48;;;;;;;2.60;2.10;;;;;;;15.67;20.90;99905.63;5020005;28;20474;-61
2021/04/27 12:19:17;;;;;;;2.73;2.00;;;;;;;15.77;21.04;99892.78;5021304;28;20438;-62
2021/04/27 12:21:44;;;;;;;5.40;1.93;;;;;;;15.64;21.20;99893.38;5021091;28;20478;-63
2021/04/27 12:24:13;;;;;;;5.53;2.03;;;;;;;15.80;20.92;99893.22;5020120;28;20478;-63
2021/04/27 12:26:43;;;;;;;4.00;1.70;;;;;;;15.95;20.62;99884.31;5022426;28;20984;-64
2021/04/27 12:29:10;;;;;;;3.37;2.17;;;;;;;15.84;20.70;99884.78;5047430;28;20496;-63
2021/04/27 12:31:37;;;;;;;2.90;2.20;;;;;;;15.70;20.64;99902.56;5083985;28;20479;-62
2021/04/27 12:34:05;;;;;;;3.53;2.20;;;;;;;15.57;21.31;99892.41;5100998;28;20458;-63
2021/04/27 12:36:33;;;;;;;2.23;1.77;;;;;;;15.27;20.39;99892.31;5100783;28;20501;-63
2021/04/27 12:38:59;;;;;;;4.67;2.23;;;;;;;15.37;20.89;99884.81;5099515;28;20451;-63
2021/04/27 12:41:39;;;;;;;3.77;1.87;;;;;;;15.49;21.16;99884.41;5100441;28;20885;-62
2021/04/27 12:44:26;;;;;;;3.20;2.70;;;;;;;15.33;20.96;99877.28;5094108;28;20457;-63
2021/04/27 12:46:52;;;;;;;6.00;2.00;;;;;;;15.66;20.91;99866.22;5079332;28;20512;-63
2021/04/27 12:49:24;;;;;;;3.40;2.03;;;;;;;15.95;20.88;99869.00;5080952;28;20981;-63
2021/04/27 12:51:54;;;;;;;3.00;1.80;;;;;;;15.80;21.12;99868.16;5079149;28;20492;-61
2021/04/27 12:54:25;;;;;;;2.30;1.87;;;;;;;14.90;20.83;99868.88;5079424;28;20455;-62
2021/04/27 12:57:07;;;;;;;5.43;2.13;;;;;;;15.32;19.99;99860.28;5099173;28;20487;-63
2021/04/27 12:59:34;;;;;;;5.33;2.20;;;;;;;15.90;20.69;99857.06;5088819;28;20443;-62
2021/04/27 13:02:04;;;;;;;3.47;2.30;;;;;;;15.84;20.74;99850.56;5085763;28;20478;-62
2021/04/27 13:04:31;;;;;;;3.93;2.23;;;;;;;15.32;21.36;99849.50;5099665;28;20548;-61
2021/04/27 13:06:57;;;;;;;5.03;2.27;;;;;;;15.85;20.92;99846.88;5099435;28;21031;-62
2021/04/27 13:09:27;;;;;;;3.10;2.27;;;;;;;15.48;19.85;99837.75;5097585;28;20525;-62
2021/04/27 13:11:58;;;;;;;3.53;2.10;;;;;;;15.72;20.53;99828.59;5098871;28;20553;-62
2021/04/27 13:14:31;;;;;;;4.97;1.73;;;;;;;16.48;21.25;99835.66;5099010;28;20447;-63
2021/04/27 13:16:59;;;;;;;4.23;2.47;;;;;;;16.05;20.82;99830.13;5096996;28;20482;-62
2021/04/27 13:19:26;;;;;;;2.53;2.03;;;;;;;16.15;20.71;99822.59;5098633;28;20450;-61
2021/04/27 13:22:10;;;;;;;4.00;2.00;;;;;;;15.47;20.15;99836.09;5097124;28;20477;-61
2021/04/27 13:24:38;;;;;;;2.90;2.10;;;;;;;15.67;21.05;99830.19;5097091;28;20450;-61
2021/04/27 13:27:04;;;;;;;2.13;1.93;;;;;;;15.33;21.81;99828.78;5098447;28;20483;-64
2021/04/27 13:29:34;;;;;;;3.70;2.13;;;;;;;15.77;20.54;99820.00;5099282;28;20502;-61
2021/04/27 13:32:20;;;;;;;2.70;1.90;;;;;;;16.22;19.81;99812.72;5098932;28;20478;-62
2021/04/27 13:34:46;;;;;;;3.70;1.80;;;;;;;16.00;20.44;99809.97;5100383;28;20465;-62
2021/04/27 13:37:13;;;;;;;10.50;2.37;;;;;;;15.86;20.78;99808.09;5098620;28;21079;-62
2021/04/27 13:39:39;;;;;;;2.80;1.70;;;;;;;16.06;20.06;99811.06;5092835;28;20448;-62
2021/04/27 13:42:06;;;;;;;3.60;2.30;;;;;;;15.95;20.51;99806.13;5097007;28;20501;-62
2021/04/27 13:44:32;;;;;;;2.07;1.80;;;;;;;15.18;20.17;99802.66;5099151;28;20455;-62
2021/04/27 13:46:59;;;;;;;2.47;1.97;;;;;;;16.30;20.59;99799.13;5096489;28;20475;-62
2021/04/27 13:49:26;;;;;;;2.63;1.93;;;;;;;16.31;19.88;99803.50;5099409;28;20474;-62
2021/04/27 13:51:52;;;;;;;4.90;1.87;;;;;;;15.87;20.63;99809.78;5098743;28;20471;-62
2021/04/27 13:54:18;;;;;;;2.27;2.07;;;;;;;15.69;20.33;99802.00;5096120;28;20459;-62
2021/04/27 13:56:45;;;;;;;3.10;2.23;;;;;;;15.60;21.01;99798.56;5081183;28;20501;-62
2021/04/27 13:59:11;;;;;;;4.03;2.30;;;;;;;15.92;20.70;99798.41;5098410;28;20515;-60
2021/04/27 14:01:37;;;;;;;3.90;1.90;;;;;;;15.81;20.46;99788.94;5098017;28;20475;-61
2021/04/27 14:04:05;;;;;;;3.30;2.20;;;;;;;15.84;20.14;99776.97;5099105;28;20450;-61
2021/04/27 14:06:32;;;;;;;6.00;2.10;;;;;;;16.19;20.45;99776.16;5098597;28;20485;-61
2021/04/27 14:08:58;;;;;;;2.80;1.93;;;;;;;16.18;21.32;99777.19;5097731;28;20807;-62
2021/04/27 14:11:24;;;;;;;4.00;2.30;;;;;;;16.04;21.04;99766.44;5091388;28;20472;-61
2021/04/27 14:13:50;;;;;;;3.30;2.40;;;;;;;15.35;20.99;99772.91;5099943;28;20462;-61
2021/04/27 14:16:16;;;;;;;2.80;2.10;;;;;;;15.40;20.75;99784.81;5100050;28;20980;-61
2021/04/27 14:18:44;;;;;;;6.80;2.23;;;;;;;15.48;21.03;99777.66;5104287;28;20458;-62
2021/04/27 14:21:10;;;;;;;5.33;2.40;;;;;;;15.27;21.69;99772.97;5100584;28;20478;-62
2021/04/27 14:23:37;;;;;;;4.87;2.63;;;;;;;15.73;20.06;99770.16;5102549;28;20461;-62
2021/04/27 14:26:04;;;;;;;6.23;2.60;;;;;;;15.90;20.38;99760.03;5102725;28;20530;-62
2021/04/27 14:28:30;;;;;;;2.20;2.00;;;;;;;15.58;20.38;99768.28;5089744;28;20491;-62
2021/04/27 14:30:56;;;;;;;2.33;1.80;;;;;;;16.16;20.78;99754.13;5090018;28;20498;-62
2021/04/27 14:33:22;;;;;;;4.17;2.60;;;;;;;16.22;20.07;99752.56;5103541;28;20467;-60
2021/04/27 14:35:50;;;;;;;2.73;1.93;;;;;;;16.11;19.98;99749.31;5102800;28;20557;-61
2021/04/27 14:38:17;;;;;;;2.93;2.63;;;;;;;15.82;20.14;99742.94;5102761;28;20480;-61
2021/04/27 14:40:44;;;;;;;3.60;2.03;;;;;;;16.21;20.18;99745.47;5102395;28;20498;-60
2021/04/27 14:43:11;;;;;;;6.00;1.90;;;;;;;16.08;19.49;99744.31;5102949;28;20443;-60
2021/04/27 14:45:37;;;;;;;4.10;2.13;;;;;;;16.27;18.90;99734.78;5101366;28;20874;-61
2021/04/27 14:48:04;;;;;;;3.97;2.17;;;;;;;15.77;19.64;99739.13;5103497;28;20442;-61
2021/04/27 14:50:31;;;;;;;3.80;2.27;;;;;;;16.18;20.16;99730.53;5102273;28;21133;-61
2021/04/27 14:52:58;;;;;;;4.33;2.30;;;;;;;16.03;19.92;99732.41;5102329;28;20532;-61
2021/04/27 14:55:26;;;;;;;3.63;2.90;;;;;;;16.27;19.84;99723.16;5101472;28;20696;-61
2021/04/27 14:57:54;;;;;;;5.00;2.23;;;;;;;16.59;20.84;99723.69;5103064;28;20457;-61
2021/04/27 15:00:20;;;;;;;4.83;1.97;;;;;;;16.47;20.81;99729.56;5099904;28;20467;-61
2021/04/27 15:02:49;;;;;;;4.90;2.00;;;;;;;15.89;19.36;99726.03;5101859;28;20459;-61
2021/04/27 15:05:17;;;;;;;5.03;2.20;;;;;;;15.90;19.85;99720.44;5102112;28;20535;-61
2021/04/27 15:07:46;;;;;;;3.10;1.87;;;;;;;15.24;20.11;99723.00;5101415;28;20686;-62
2021/04/27 15:10:12;;;;;;;4.33;2.43;;;;;;;15.96;20.29;99716.16;5100619;28;20535;-61
2021/04/27 15:12:39;;;;;;;2.53;1.97;;;;;;;16.03;20.66;99725.16;5103296;28;20442;-61
2021/04/27 15:15:10;;;;;;;4.83;2.60;;;;;;;15.81;20.01;99718.84;5101174;28;20478;-61
2021/04/27 15:17:36;;;;;;;2.93;1.90;;;;;;;16.39;19.88;99705.44;5102169;28;20439;-62
2021/04/27 15:20:04;;;;;;;2.27;2.00;;;;;;;16.47;20.04;99710.69;5101610;28;20531;-62
2021/04/27 15:22:31;;;;;;;5.10;2.20;;;;;;;16.13;19.42;99709.50;5101404;28;20489;-61
2021/04/27 15:24:58;;;;;;;2.67;2.10;;;;;;;16.32;19.76;99713.47;5102342;28;20478;-61
2021/04/27 15:27:24;;;;;;;3.87;1.97;;;;;;;16.30;20.21;99702.03;5100781;28;20486;-61
2021/04/27 15:29:51;;;;;;;3.90;2.47;;;;;;;15.99;19.93;99710.38;5100623;28;20514;-61
2021/04/27 15:32:19;;;;;;;3.07;2.00;;;;;;;15.80;19.77;99707.25;5102762;28;20512;-61
2021/04/27 15:34:45;;;;;;;2.20;1.87;;;;;;;15.78;19.91;99709.31;5102554;28;20486;-61
2021/04/27 15:37:12;;;;;;;2.57;2.10;;;;;;;15.68;20.17;99697.13;5100787;28;20501;-61
2021/04/27 15:39:38;;;;;;;3.07;1.90;;;;;;;15.95;19.93;99690.22;5101754;28;20460;-61
2021/04/27 15:42:04;;;;;;;2.67;2.37;;;;;;;15.72;20.56;99688.44;5101052;28;20483;-62
2021/04/27 15:44:31;;;;;;;4.07;2.40;;;;;;;15.52;21.18;99695.44;5101360;28;20960;-61
2021/04/27 15:46:58;;;;;;;6.43;2.43;;;;;;;15.56;21.04;99694.06;5101649;28;20498;-61
2021/04/27 15:49:25;;;;;;;4.33;2.10;;;;;;;16.22;20.47;99698.63;5102462;28;20470;-62
2021/04/27 15:51:52;;;;;;;3.13;2.17;;;;;;;15.58;20.06;99686.63;5100348;28;20482;-62
2021/04/27 15:54:21;;;;;;;2.80;2.30;;;;;;;15.61;19.83;99683.56;5101965;28;20455;-61
2021/04/27 15:56:48;;;;;;;2.67;2.23;;;;;;;15.69;20.60;99680.72;5101182;28;20581;-61
2021/04/27 15:59:14;;;;;;;5.60;2.30;;;;;;;15.53;19.63;99680.94;5081920;28;20447;-64
2021/04/27 16:01:40;;;;;;;7.30;2.10;;;;;;;15.60;19.98;99684.56;5100322;28;20544;-66
2021/04/27 16:04:07;;;;;;;4.03;2.70;;;;;;;15.79;20.32;99677.78;5101990;28;20455;-63
2021/04/27 16:06:34;;;;;;;2.10;1.87;;;;;;;15.95;19.56;99677.59;5100376;28;20475;-67
2021/04/27 16:09:00;;;;;;;3.80;2.20;;;;;;;16.02;19.81;99669.53;5100298;28;20451;-65
2021/04/27 16:11:26;;;;;;;4.10;2.23;;;;;;;15.85;20.12;99665.41;5100374;28;20500;-65
2021/04/27 16:13:53;;;;;;;4.13;2.50;;;;;;;15.62;19.92;99667.19;5100641;28;20450;-64
2021/04/27 16:16:19;;;;;;;3.53;2.60;;;;;;;15.52;19.96;99661.25;5100690;28;21039;-64
2021/04/27 16:18:45;;;;;;;2.37;2.00;;;;;;;16.21;20.73;99654.59;5101670;28;20447;-60
2021/04/27 16:21:12;;;;;;;3.73;2.10;;;;;;;15.96;19.87;99648.75;5093643;28;20498;-61
2021/04/27 16:23:39;;;;;;;5.60;2.70;;;;;;;15.97;20.98;99659.34;5081595;28;20446;-60
2021/04/27 16:26:05;;;;;;;12.20;2.23;;;;;;;15.78;19.99;99651.88;5080363;28;20882;-60
2021/04/27 16:28:33;;;;;;;6.63;3.70;;;;;;;15.63;20.29;99651.84;5098296;28;20734;-61
2021/04/27 16:30:59;;;;;;;4.23;2.40;;;;;;;15.90;20.85;99646.81;5098768;28;20478;-61
2021/04/27 16:33:25;;;;;;;3.67;2.40;;;;;;;15.78;20.13;99655.41;5099515;28;20447;-62
2021/04/27 16:35:52;;;;;;;4.50;2.50;;;;;;;15.87;20.39;99648.03;5098099;28;20782;-63
2021/04/27 16:38:18;;;;;;;7.53;2.90;;;;;;;15.78;20.49;99649.19;5109001;28;20466;-62
2021/04/27 16:40:45;;;;;;;3.77;2.20;;;;;;;15.60;20.63;99636.88;5107584;28;20483;-62
2021/04/27 16:43:11;;;;;;;4.80;2.77;;;;;;;15.46;20.88;99651.22;5099738;28;20475;-62
2021/04/27 16:45:37;;;;;;;3.27;2.60;;;;;;;15.24;20.67;99639.53;5099543;28;20506;-62
2021/04/27 16:48:04;;;;;;;3.70;2.30;;;;;;;15.32;20.82;99639.44;5100840;28;20467;-62
2021/04/27 16:50:30;;;;;;;3.00;2.50;;;;;;;15.75;21.17;99644.16;5099958;28;20478;-61
2021/04/27 16:52:57;;;;;;;3.70;2.73;;;;;;;15.75;20.51;99645.00;5100689;28;20481;-62
2021/04/27 16:55:25;;;;;;;4.97;2.50;;;;;;;15.48;20.83;99651.88;5100002;28;20454;-60
2021/04/27 16:57:52;;;;;;;4.33;2.87;;;;;;;15.38;21.72;99645.94;5099339;28;20457;-64
2021/04/27 17:00:22;;;;;;;3.53;2.73;;;;;;;15.33;20.88;99638.44;5099603;28;20458;-66
2021/04/27 17:02:49;;;;;;;3.87;2.67;;;;;;;15.33;21.89;99641.13;5100705;28;20451;-61
2021/04/27 17:05:16;;;;;;;2.70;2.50;;;;;;;15.31;21.76;99636.94;5098610;28;20455;-61
2021/04/27 17:07:43;;;;;;;3.80;2.50;;;;;;;15.25;21.94;99631.25;5100571;28;20536;-61
2021/04/27 17:10:11;;;;;;;4.20;2.37;;;;;;;15.58;21.26;99630.03;5098551;28;20482;-61
2021/04/27 17:12:37;;;;;;;7.83;3.20;;;;;;;15.16;21.45;99636.94;5099114;28;20448;-61
2021/04/27 17:15:07;;;;;;;5.00;2.70;;;;;;;15.54;21.47;99626.06;5099214;28;20455;-62
2021/04/27 17:17:33;;;;;;;4.53;2.70;;;;;;;15.32;22.00;99634.03;5119756;28;20450;-60
2021/04/27 17:19:59;;;;;;;7.53;2.70;;;;;;;15.06;21.86;99634.50;5119552;28;20453;-62
2021/04/27 17:22:25;;;;;;;4.77;2.90;;;;;;;15.20;21.67;99636.38;5118862;28;20470;-62
2021/04/27 17:24:52;;;;;;;5.27;2.27;;;;;;;15.29;21.95;99636.28;5120951;28;20485;-62
2021/04/27 17:27:18;;;;;;;6.20;2.97;;;;;;;15.37;21.95;99637.03;5099814;28;20531;-62
2021/04/27 17:29:45;;;;;;;8.50;2.60;;;;;;;15.26;21.77;99634.81;5121192;28;20494;-62
2021/04/27 17:32:12;;;;;;;3.97;3.10;;;;;;;15.07;21.94;99631.63;5119711;28;20480;-61
2021/04/27 17:34:38;;;;;;;5.03;3.17;;;;;;;14.86;22.34;99640.44;5120081;28;20449;-62
2021/04/27 17:37:04;;;;;;;3.43;2.97;;;;;;;14.74;22.19;99635.66;5120005;28;20481;-62
2021/04/27 17:39:31;;;;;;;3.20;2.90;;;;;;;14.75;21.97;99629.28;5117330;28;20502;-61
2021/04/27 17:41:58;;;;;;;2.60;2.40;;;;;;;14.78;21.91;99634.31;5119332;28;20492;-62
2021/04/27 17:44:24;;;;;;;3.93;2.60;;;;;;;15.01;22.00;99632.38;5120041;28;20442;-61
2021/04/27 17:46:50;;;;;;;9.57;2.87;;;;;;;15.01;22.15;99637.75;5116583;28;20617;-62
2021/04/27 17:49:17;;;;;;;4.17;2.60;;;;;;;14.64;22.10;99638.63;5139804;28;20429;-62
2021/04/27 17:51:44;;;;;;;3.67;2.37;;;;;;;14.74;22.39;99632.97;5122083;28;20516;-62
2021/04/27 17:54:11;;;;;;;3.20;2.50;;;;;;;14.37;21.83;99630.06;5124174;28;20446;-62
2021/04/27 17:56:37;;;;;;;4.87;2.77;;;;;;;14.53;22.32;99633.66;5126361;27;20508;-62
2021/04/27 17:59:03;;;;;;;3.00;2.67;;;;;;;14.29;22.33;99630.16;5123582;28;20528;-61
2021/04/27 18:01:30;;;;;;;2.83;2.27;;;;;;;14.45;22.66;99632.69;5105509;28;20482;-61
2021/04/27 18:03:56;;;;;;;3.23;2.50;;;;;;;14.51;22.26;99633.81;5122861;28;20492;-61
2021/04/27 18:06:23;;;;;;;6.50;2.70;;;;;;;14.30;22.46;99630.00;5123588;28;20478;-62
2021/04/27 18:08:50;;;;;;;4.60;2.83;;;;;;;14.38;22.87;99636.31;5106828;28;20466;-62
2021/04/27 18:11:16;;;;;;;4.60;2.43;;;;;;;14.24;23.00;99641.44;5106600;28;20478;-66
2021/04/27 18:13:44;;;;;;;3.73;2.97;;;;;;;14.25;23.54;99643.13;5124158;28;20445;-64
2021/04/27 18:16:10;;;;;;;3.47;2.63;;;;;;;14.27;23.38;99637.56;5123784;28;20477;-64
2021/04/27 18:18:36;;;;;;;4.87;2.90;;;;;;;14.06;23.59;99638.19;5117320;28;20439;-64
2021/04/27 18:21:03;;;;;;;4.23;3.00;;;;;;;13.90;24.05;99634.59;5084489;28;20466;-63
2021/04/27 18:23:30;;;;;;;6.57;2.57;;;;;;;14.03;24.25;99641.28;5118561;28;20442;-63
2021/04/27 18:26:00;;;;;;;3.30;2.40;;;;;;;13.74;23.73;99640.09;5121602;28;21025;-68
2021/04/27 18:28:29;;;;;;;5.50;3.60;;;;;;;13.75;24.31;99634.53;5122552;28;20482;-63
2021/04/27 18:30:56;;;;;;;7.53;3.10;;;;;;;13.59;24.26;99637.28;5122482;28;20487;-64
2021/04/27 18:33:22;;;;;;;8.57;3.07;;;;;;;13.74;24.48;99634.72;5121619;28;20474;-66
2021/04/27 18:35:49;;;;;;;3.90;2.87;;;;;;;13.48;25.25;99632.31;5122224;28;20482;-64
2021/04/27 18:38:15;;;;;;;3.50;2.50;;;;;;;13.31;26.00;99629.69;5123358;28;20482;-63
2021/04/27 18:40:43;;;;;;;4.50;3.90;;;;;;;13.29;26.46;99633.53;5121180;28;20481;-64
2021/04/27 18:43:09;;;;;;;5.30;3.03;;;;;;;13.26;26.92;99633.88;5115793;27;20442;-72
2021/04/27 18:45:39;;;;;;;7.20;2.60;;;;;;;12.96;27.21;99630.94;5114662;27;20473;-65
2021/04/27 18:48:07;;;;;;;6.60;3.30;;;;;;;13.04;27.57;99639.00;5119161;28;20451;-69
2021/04/27 18:50:34;;;;;;;4.20;2.40;;;;;;;13.03;27.93;99631.94;5131830;27;20472;-68
2021/04/27 18:53:01;;;;;;;5.30;2.90;;;;;;;12.79;28.31;99635.50;5123749;27;20476;-69
2021/04/27 18:55:27;;;;;;;6.30;3.90;;;;;;;12.84;28.17;99635.84;5122335;27;20480;-70
2021/04/27 18:57:55;;;;;;;5.37;4.80;;;;;;;12.97;27.99;99638.00;5102886;28;20439;-68
2021/04/27 19:00:24;;;;;;;8.73;4.27;;;;;;;12.83;28.54;99642.22;5121279;28;20450;-68
2021/04/27 19:02:52;;;;;;;6.40;2.90;;;;;;;12.88;28.68;99642.56;5100900;28;20723;-66
2021/04/27 19:05:18;;;;;;;4.53;3.00;;;;;;;12.54;29.63;99643.56;5100128;28;20483;-69
2021/04/27 19:07:45;;;;;;;6.47;2.80;;;;;;;12.79;29.18;99646.22;5100997;28;20473;-66
2021/04/27 19:10:13;;;;;;;5.90;2.97;;;;;;;12.52;29.73;99653.63;5099272;28;20546;-67
2021/04/27 19:12:40;;;;;;;4.93;3.10;;;;;;;12.24;30.39;99661.19;5109138;28;20446;-64
2021/04/27 19:15:08;;;;;;;7.43;3.40;;;;;;;12.43;30.28;99651.97;5120166;28;20476;-68
2021/04/27 19:17:35;;;;;;;4.50;3.37;;;;;;;12.34;30.33;99647.59;5118152;28;20450;-66
2021/04/27 19:20:02;;;;;;;4.40;3.20;;;;;;;12.27;30.63;99652.78;5135384;27;20437;-65
2021/04/27 19:22:28;;;;;;;3.70;2.80;;;;;;;12.11;30.91;99658.13;5132618;27;20473;-67
2021/04/27 19:24:55;;;;;;;5.43;3.57;;;;;;;12.03;30.88;99653.56;5121159;28;20461;-67
2021/04/27 19:27:21;;;;;;;4.57;3.43;;;;;;;12.15;30.84;99651.44;5118875;28;20512;-63
2021/04/27 19:29:47;;;;;;;9.00;3.87;;;;;;;12.02;30.98;99650.06;5120137;28;20634;-66
2021/04/27 19:32:15;;;;;;;5.17;3.20;;;;;;;12.25;31.03;99654.78;5119812;28;20481;-62
2021/04/27 19:34:41;;;;;;;4.00;2.93;;;;;;;11.89;31.19;99660.41;5120298;28;20465;-65
2021/04/27 19:37:07;;;;;;;4.27;3.23;;;;;;;11.84;31.42;99654.72;5119979;28;20474;-68
2021/04/27 19:39:33;;;;;;;5.67;3.30;;;;;;;11.89;31.60;99657.72;5101228;28;20483;-65
2021/04/27 19:42:00;;;;;;;5.67;3.27;;;;;;;11.55;31.86;99655.13;5118508;28;20485;-65
2021/04/27 19:44:26;;;;;;;5.43;3.80;;;;;;;11.71;31.71;99657.00;5140349;27;20449;-67
2021/04/27 19:46:53;;;;;;;3.80;3.30;;;;;;;11.62;32.20;99669.53;5119400;28;20477;-63
2021/04/27 19:49:20;;;;;;;4.27;3.20;;;;;;;11.71;31.83;99662.34;5119747;28;20438;-63
2021/04/27 19:51:47;;;;;;;6.80;3.63;;;;;;;11.59;32.20;99659.97;5100627;28;20474;-69
2021/04/27 19:54:13;;;;;;;8.00;3.50;;;;;;;11.51;32.18;99657.28;5120287;28;20453;-64
2021/04/27 19:56:40;;;;;;;6.63;3.40;;;;;;;11.60;32.13;99660.81;5119017;28;20474;-66
2021/04/27 19:59:06;;;;;;;7.67;3.90;;;;;;;11.57;32.37;99661.13;5120270;28;20824;-68
2021/04/27 20:01:32;;;;;;;8.17;4.23;;;;;;;11.50;32.57;99660.94;5118963;28;20492;-65
2021/04/27 20:03:59;;;;;;;3.57;2.90;;;;;;;11.25;32.29;99652.81;5119538;28;20442;-67
2021/04/27 20:06:28;;;;;;;6.40;3.20;;;;;;;11.31;32.79;99657.50;5102124;28;20482;-65
2021/04/27 20:08:54;;;;;;;15.03;5.53;;;;;;;11.26;32.54;99662.50;5104891;28;20464;-70
2021/04/27 20:11:21;;;;;;;8.07;3.30;;;;;;;11.14;32.68;99653.06;5117626;28;20474;-67
2021/04/27 20:13:47;;;;;;;4.60;3.23;;;;;;;11.10;33.02;99643.69;5118871;28;20886;-69
2021/04/27 20:16:13;;;;;;;7.10;3.43;;;;;;;11.13;32.66;99643.38;5118277;28;20477;-67
2021/04/27 20:18:39;;;;;;;4.50;3.50;;;;;;;10.92;33.35;99647.28;5118888;28;20469;-66
2021/04/27 20:21:06;;;;;;;6.83;3.50;;;;;;;11.09;32.99;99652.69;5119229;28;20470;-69
2021/04/27 20:23:33;;;;;;;6.30;3.23;;;;;;;11.03;32.79;99650.69;5109320;28;20447;-68
2021/04/27 20:25:59;;;;;;;4.47;3.20;;;;;;;10.79;33.17;99649.50;5097879;28;20897;-66
2021/04/27 20:28:26;;;;;;;5.73;3.17;;;;;;;10.77;33.22;99648.84;5097979;28;20953;-68
2021/04/27 20:30:52;;;;;;;6.50;3.13;;;;;;;10.64;33.56;99646.59;5096969;28;20494;-67
2021/04/27 20:33:19;;;;;;;5.03;3.60;;;;;;;10.82;33.69;99646.53;5080328;28;20507;-68
2021/04/27 20:35:46;;;;;;;4.67;3.13;;;;;;;10.80;33.63;99650.34;5096445;28;20488;-65
2021/04/27 20:38:12;;;;;;;3.60;2.63;;;;;;;10.67;33.55;99645.44;5099408;28;20481;-64
2021/04/27 20:40:40;;;;;;;7.03;3.27;;;;;;;10.72;33.54;99645.78;5097033;28;20490;-65
2021/04/27 20:43:07;;;;;;;5.33;3.30;;;;;;;10.58;33.45;99638.34;5107156;28;20886;-66
2021/04/27 20:45:33;;;;;;;4.73;3.70;;;;;;;10.68;33.50;99641.75;5119120;28;20473;-67
2021/04/27 20:48:00;;;;;;;4.17;3.77;;;;;;;10.74;33.22;99638.44;5098010;28;20497;-71
2021/04/27 20:50:26;;;;;;;4.40;3.60;;;;;;;10.79;33.22;99646.00;5098778;28;20483;-64
2021/04/27 20:52:52;;;;;;;5.03;3.53;;;;;;;10.59;33.63;99640.00;5099471;28;20482;-66
2021/04/27 20:55:19;;;;;;;4.93;4.23;;;;;;;10.53;33.84;99636.97;5097573;28;20459;-73
2021/04/27 20:57:46;;;;;;;6.20;3.93;;;;;;;10.42;33.80;99647.09;5098398;28;20446;-67
2021/04/27 21:00:16;;;;;;;7.50;4.00;;;;;;;10.48;33.92;99638.44;5098876;28;20447;-65
2021/04/27 21:02:42;;;;;;;5.60;4.00;;;;;;;10.35;33.86;99642.34;5098463;28;20842;-66
2021/04/27 21:05:10;;;;;;;4.60;3.50;;;;;;;10.44;33.69;99640.56;5098686;28;20451;-66
2021/04/27 21:07:37;;;;;;;4.80;3.67;;;;;;;10.30;33.88;99647.28;5099139;28;20500;-62